sensor_id;sensor_type;location;lat;lon;timestamp;P1;durP1;ratioP1;P2;durP2;ratioP2
77991;SDS011;67180;43.534;-5.652;2023-04-01T00:01:47;29.05;;;5.97;;
77991;SDS011;67180;43.534;-5.652;2023-04-01T00:04:13;31.77;;;5.22;;
77991;SDS011;67180;43.534;-5.652;2023-04-01T00:06:40;25.30;;;5.32;;
77991;SDS011;67180;43.534;-5.652;2023-04-01T00:09:06;30.65;;;5.55;;
77991;SDS011;67180;43.534;-5.652;2023-04-01T00:11:33;32.83;;;5.78;;
77991;SDS011;67180;43.534;-5.652;2023-04-01T00:13:59;37.35;;;5.55;;
77991;SDS011;67180;43.534;-5.652;2023-04-01T00:16:25;30.27;;;6.13;;
77991;SDS011;67180;43.534;-5.652;2023-04-01T00:18:52;26.00;;;5.65;;
77991;SDS011;67180;43.534;-5.652;2023-04-01T00:21:18;36.40;;;6.45;;
77991;SDS011;67180;43.534;-5.652;2023-04-01T00:23:45;31.23;;;6.22;;
77991;SDS011;67180;43.534;-5.652;2023-04-01T00:26:11;35.78;;;7.47;;
77991;SDS011;67180;43.534;-5.652;2023-04-01T00:28:39;39.95;;;7.53;;
77991;SDS011;67180;43.534;-5.652;2023-04-01T00:31:07;33.78;;;6.95;;
77991;SDS011;67180;43.534;-5.652;2023-04-01T00:33:34;24.80;;;5.78;;
77991;SDS011;67180;43.534;-5.652;2023-04-01T00:36:08;32.45;;;7.60;;
77991;SDS011;67180;43.534;-5.652;2023-04-01T00:38:35;35.67;;;7.57;;
77991;SDS011;67180;43.534;-5.652;2023-04-01T00:41:05;28.60;;;6.45;;
77991;SDS011;67180;43.534;-5.652;2023-04-01T00:43:31;29.52;;;6.38;;
77991;SDS011;67180;43.534;-5.652;2023-04-01T00:45:58;37.03;;;7.20;;
77991;SDS011;67180;43.534;-5.652;2023-04-01T00:48:29;30.50;;;6.90;;
77991;SDS011;67180;43.534;-5.652;2023-04-01T00:53:22;31.23;;;6.57;;
77991;SDS011;67180;43.534;-5.652;2023-04-01T00:58:31;33.58;;;6.82;;
77991;SDS011;67180;43.534;-5.652;2023-04-01T01:00:58;38.58;;;6.65;;
77991;SDS011;67180;43.534;-5.652;2023-04-01T01:03:26;25.73;;;5.93;;
77991;SDS011;67180;43.534;-5.652;2023-04-01T01:05:59;27.35;;;6.13;;
77991;SDS011;67180;43.534;-5.652;2023-04-01T01:08:34;31.60;;;6.97;;
77991;SDS011;67180;43.534;-5.652;2023-04-01T01:11:03;37.63;;;7.22;;
77991;SDS011;67180;43.534;-5.652;2023-04-01T01:13:33;30.67;;;7.20;;
77991;SDS011;67180;43.534;-5.652;2023-04-01T01:16:05;31.00;;;7.15;;
77991;SDS011;67180;43.534;-5.652;2023-04-01T01:18:35;43.30;;;8.05;;
77991;SDS011;67180;43.534;-5.652;2023-04-01T01:21:20;40.58;;;7.95;;
77991;SDS011;67180;43.534;-5.652;2023-04-01T01:26:40;34.55;;;8.15;;
77991;SDS011;67180;43.534;-5.652;2023-04-01T01:29:33;35.53;;;7.97;;
77991;SDS011;67180;43.534;-5.652;2023-04-01T01:34:36;27.90;;;6.68;;
77991;SDS011;67180;43.534;-5.652;2023-04-01T01:37:08;31.08;;;7.45;;
77991;SDS011;67180;43.534;-5.652;2023-04-01T01:39:36;39.42;;;8.13;;
77991;SDS011;67180;43.534;-5.652;2023-04-01T01:42:04;32.50;;;8.52;;
77991;SDS011;67180;43.534;-5.652;2023-04-01T01:44:32;34.85;;;7.97;;
77991;SDS011;67180;43.534;-5.652;2023-04-01T01:46:59;38.67;;;8.45;;
77991;SDS011;67180;43.534;-5.652;2023-04-01T01:49:26;30.48;;;7.32;;
77991;SDS011;67180;43.534;-5.652;2023-04-01T01:51:55;29.30;;;8.52;;
77991;SDS011;67180;43.534;-5.652;2023-04-01T01:54:21;30.45;;;7.60;;
77991;SDS011;67180;43.534;-5.652;2023-04-01T01:56:48;27.15;;;7.88;;
77991;SDS011;67180;43.534;-5.652;2023-04-01T01:59:16;33.00;;;7.72;;
77991;SDS011;67180;43.534;-5.652;2023-04-01T02:01:45;31.25;;;8.07;;
77991;SDS011;67180;43.534;-5.652;2023-04-01T02:04:12;34.88;;;7.90;;
77991;SDS011;67180;43.534;-5.652;2023-04-01T02:06:42;29.55;;;7.95;;
77991;SDS011;67180;43.534;-5.652;2023-04-01T02:09:09;30.40;;;7.68;;
77991;SDS011;67180;43.534;-5.652;2023-04-01T02:11:39;37.42;;;8.95;;
77991;SDS011;67180;43.534;-5.652;2023-04-01T02:14:09;42.08;;;8.77;;
77991;SDS011;67180;43.534;-5.652;2023-04-01T02:16:41;37.80;;;9.43;;
77991;SDS011;67180;43.534;-5.652;2023-04-01T02:19:10;39.47;;;8.95;;
77991;SDS011;67180;43.534;-5.652;2023-04-01T02:21:37;33.85;;;9.05;;
77991;SDS011;67180;43.534;-5.652;2023-04-01T02:24:04;39.85;;;9.45;;
77991;SDS011;67180;43.534;-5.652;2023-04-01T02:26:31;30.85;;;6.97;;
77991;SDS011;67180;43.534;-5.652;2023-04-01T02:28:57;33.40;;;6.22;;
77991;SDS011;67180;43.534;-5.652;2023-04-01T02:31:25;34.38;;;5.68;;
77991;SDS011;67180;43.534;-5.652;2023-04-01T02:33:51;30.33;;;4.93;;
77991;SDS011;67180;43.534;-5.652;2023-04-01T02:36:18;23.42;;;4.90;;
77991;SDS011;67180;43.534;-5.652;2023-04-01T02:38:44;26.25;;;4.57;;
77991;SDS011;67180;43.534;-5.652;2023-04-01T02:41:11;21.65;;;4.93;;
77991;SDS011;67180;43.534;-5.652;2023-04-01T02:43:37;24.17;;;4.30;;
77991;SDS011;67180;43.534;-5.652;2023-04-01T02:46:04;21.20;;;3.55;;
77991;SDS011;67180;43.534;-5.652;2023-04-01T02:48:30;14.38;;;3.15;;
77991;SDS011;67180;43.534;-5.652;2023-04-01T02:50:56;16.85;;;2.55;;
77991;SDS011;67180;43.534;-5.652;2023-04-01T02:53:22;19.55;;;2.75;;
77991;SDS011;67180;43.534;-5.652;2023-04-01T02:55:49;22.58;;;3.55;;
77991;SDS011;67180;43.534;-5.652;2023-04-01T02:58:16;16.10;;;2.65;;
77991;SDS011;67180;43.534;-5.652;2023-04-01T03:00:43;19.83;;;2.90;;
77991;SDS011;67180;43.534;-5.652;2023-04-01T03:03:09;18.95;;;2.97;;
77991;SDS011;67180;43.534;-5.652;2023-04-01T03:05:35;19.10;;;2.78;;
77991;SDS011;67180;43.534;-5.652;2023-04-01T03:08:02;23.08;;;3.30;;
77991;SDS011;67180;43.534;-5.652;2023-04-01T03:10:28;18.48;;;3.25;;
77991;SDS011;67180;43.534;-5.652;2023-04-01T03:12:54;16.92;;;3.65;;
77991;SDS011;67180;43.534;-5.652;2023-04-01T03:15:21;19.52;;;3.70;;
77991;SDS011;67180;43.534;-5.652;2023-04-01T03:17:47;21.95;;;3.53;;
77991;SDS011;67180;43.534;-5.652;2023-04-01T03:20:13;25.48;;;4.35;;
77991;SDS011;67180;43.534;-5.652;2023-04-01T03:22:40;31.25;;;5.35;;
77991;SDS011;67180;43.534;-5.652;2023-04-01T03:25:06;26.33;;;5.05;;
77991;SDS011;67180;43.534;-5.652;2023-04-01T03:27:33;30.33;;;5.97;;
77991;SDS011;67180;43.534;-5.652;2023-04-01T03:30:01;44.67;;;5.80;;
77991;SDS011;67180;43.534;-5.652;2023-04-01T03:32:27;32.72;;;5.93;;
77991;SDS011;67180;43.534;-5.652;2023-04-01T03:34:53;31.90;;;5.60;;
77991;SDS011;67180;43.534;-5.652;2023-04-01T03:37:19;32.28;;;5.88;;
77991;SDS011;67180;43.534;-5.652;2023-04-01T03:39:45;27.70;;;5.25;;
77991;SDS011;67180;43.534;-5.652;2023-04-01T03:42:12;29.40;;;7.10;;
77991;SDS011;67180;43.534;-5.652;2023-04-01T03:44:38;27.65;;;6.68;;
77991;SDS011;67180;43.534;-5.652;2023-04-01T03:47:04;32.75;;;8.23;;
77991;SDS011;67180;43.534;-5.652;2023-04-01T03:49:30;33.05;;;8.57;;
77991;SDS011;67180;43.534;-5.652;2023-04-01T03:51:57;29.52;;;7.32;;
77991;SDS011;67180;43.534;-5.652;2023-04-01T03:54:23;31.42;;;7.53;;
77991;SDS011;67180;43.534;-5.652;2023-04-01T03:56:50;29.05;;;6.80;;
77991;SDS011;67180;43.534;-5.652;2023-04-01T03:59:16;27.85;;;5.55;;
77991;SDS011;67180;43.534;-5.652;2023-04-01T04:01:42;20.88;;;6.30;;
77991;SDS011;67180;43.534;-5.652;2023-04-01T04:04:10;22.63;;;6.68;;
77991;SDS011;67180;43.534;-5.652;2023-04-01T04:06:38;29.23;;;6.47;;
77991;SDS011;67180;43.534;-5.652;2023-04-01T04:09:04;28.55;;;7.07;;
77991;SDS011;67180;43.534;-5.652;2023-04-01T04:11:30;30.75;;;7.93;;
77991;SDS011;67180;43.534;-5.652;2023-04-01T04:13:58;28.05;;;9.07;;
77991;SDS011;67180;43.534;-5.652;2023-04-01T04:16:24;27.75;;;9.80;;
77991;SDS011;67180;43.534;-5.652;2023-04-01T04:18:50;31.85;;;8.68;;
77991;SDS011;67180;43.534;-5.652;2023-04-01T04:21:19;28.20;;;7.85;;
77991;SDS011;67180;43.534;-5.652;2023-04-01T04:23:45;29.60;;;9.40;;
77991;SDS011;67180;43.534;-5.652;2023-04-01T04:26:12;28.85;;;8.60;;
77991;SDS011;67180;43.534;-5.652;2023-04-01T04:28:38;26.05;;;8.68;;
77991;SDS011;67180;43.534;-5.652;2023-04-01T04:31:05;27.40;;;8.10;;
77991;SDS011;67180;43.534;-5.652;2023-04-01T04:33:31;24.98;;;9.05;;
77991;SDS011;67180;43.534;-5.652;2023-04-01T04:35:58;31.67;;;9.38;;
77991;SDS011;67180;43.534;-5.652;2023-04-01T04:38:25;28.42;;;8.50;;
77991;SDS011;67180;43.534;-5.652;2023-04-01T04:40:51;31.25;;;7.32;;
77991;SDS011;67180;43.534;-5.652;2023-04-01T04:43:18;24.65;;;8.20;;
77991;SDS011;67180;43.534;-5.652;2023-04-01T04:45:44;34.50;;;9.88;;
77991;SDS011;67180;43.534;-5.652;2023-04-01T04:48:11;21.83;;;8.32;;
77991;SDS011;67180;43.534;-5.652;2023-04-01T04:50:43;27.17;;;8.73;;
77991;SDS011;67180;43.534;-5.652;2023-04-01T04:53:10;29.48;;;9.73;;
77991;SDS011;67180;43.534;-5.652;2023-04-01T04:55:36;27.55;;;9.32;;
77991;SDS011;67180;43.534;-5.652;2023-04-01T04:58:02;25.30;;;9.75;;
77991;SDS011;67180;43.534;-5.652;2023-04-01T05:00:28;24.63;;;9.68;;
77991;SDS011;67180;43.534;-5.652;2023-04-01T05:02:55;31.40;;;10.20;;
77991;SDS011;67180;43.534;-5.652;2023-04-01T05:05:21;29.15;;;9.52;;
77991;SDS011;67180;43.534;-5.652;2023-04-01T05:07:48;22.48;;;9.57;;
77991;SDS011;67180;43.534;-5.652;2023-04-01T05:10:14;25.75;;;9.90;;
77991;SDS011;67180;43.534;-5.652;2023-04-01T05:12:40;22.70;;;10.23;;
77991;SDS011;67180;43.534;-5.652;2023-04-01T05:15:07;27.50;;;9.90;;
77991;SDS011;67180;43.534;-5.652;2023-04-01T05:17:33;28.00;;;9.30;;
77991;SDS011;67180;43.534;-5.652;2023-04-01T05:19:59;28.48;;;10.48;;
77991;SDS011;67180;43.534;-5.652;2023-04-01T05:22:25;30.80;;;10.65;;
77991;SDS011;67180;43.534;-5.652;2023-04-01T05:24:52;31.75;;;10.40;;
77991;SDS011;67180;43.534;-5.652;2023-04-01T05:27:18;26.52;;;9.43;;
77991;SDS011;67180;43.534;-5.652;2023-04-01T05:29:44;27.13;;;9.70;;
77991;SDS011;67180;43.534;-5.652;2023-04-01T05:32:10;24.42;;;9.05;;
77991;SDS011;67180;43.534;-5.652;2023-04-01T05:34:36;28.65;;;9.52;;
77991;SDS011;67180;43.534;-5.652;2023-04-01T05:37:03;27.70;;;8.25;;
77991;SDS011;67180;43.534;-5.652;2023-04-01T05:39:29;28.55;;;8.68;;
77991;SDS011;67180;43.534;-5.652;2023-04-01T05:41:55;17.98;;;6.38;;
77991;SDS011;67180;43.534;-5.652;2023-04-01T05:44:21;20.50;;;7.35;;
77991;SDS011;67180;43.534;-5.652;2023-04-01T05:46:47;20.48;;;6.75;;
77991;SDS011;67180;43.534;-5.652;2023-04-01T05:49:13;18.50;;;6.47;;
77991;SDS011;67180;43.534;-5.652;2023-04-01T05:51:40;16.33;;;6.05;;
77991;SDS011;67180;43.534;-5.652;2023-04-01T05:54:06;11.60;;;5.15;;
77991;SDS011;67180;43.534;-5.652;2023-04-01T05:56:32;16.88;;;5.65;;
77991;SDS011;67180;43.534;-5.652;2023-04-01T05:58:58;15.00;;;6.10;;
77991;SDS011;67180;43.534;-5.652;2023-04-01T06:01:25;15.05;;;5.13;;
77991;SDS011;67180;43.534;-5.652;2023-04-01T06:03:51;13.23;;;5.70;;
77991;SDS011;67180;43.534;-5.652;2023-04-01T06:06:21;14.68;;;6.00;;
77991;SDS011;67180;43.534;-5.652;2023-04-01T06:08:49;16.20;;;5.60;;
77991;SDS011;67180;43.534;-5.652;2023-04-01T06:14:07;12.30;;;5.20;;
77991;SDS011;67180;43.534;-5.652;2023-04-01T06:16:42;12.55;;;4.80;;
77991;SDS011;67180;43.534;-5.652;2023-04-01T06:19:21;14.82;;;5.15;;
77991;SDS011;67180;43.534;-5.652;2023-04-01T06:24:45;11.48;;;4.65;;
77991;SDS011;67180;43.534;-5.652;2023-04-01T06:27:16;11.23;;;4.28;;
77991;SDS011;67180;43.534;-5.652;2023-04-01T06:29:55;12.40;;;4.32;;
77991;SDS011;67180;43.534;-5.652;2023-04-01T06:32:36;13.55;;;4.07;;
77991;SDS011;67180;43.534;-5.652;2023-04-01T06:46:04;12.90;;;4.35;;
77991;SDS011;67180;43.534;-5.652;2023-04-01T06:51:07;16.33;;;4.93;;
77991;SDS011;67180;43.534;-5.652;2023-04-01T06:53:44;16.45;;;4.80;;
77991;SDS011;67180;43.534;-5.652;2023-04-01T06:56:14;17.67;;;4.47;;
77991;SDS011;67180;43.534;-5.652;2023-04-01T06:58:46;13.02;;;4.57;;
77991;SDS011;67180;43.534;-5.652;2023-04-01T07:01:14;14.43;;;4.33;;
77991;SDS011;67180;43.534;-5.652;2023-04-01T07:03:43;17.90;;;4.80;;
77991;SDS011;67180;43.534;-5.652;2023-04-01T07:06:13;12.70;;;4.40;;
77991;SDS011;67180;43.534;-5.652;2023-04-01T07:08:40;11.52;;;4.00;;
77991;SDS011;67180;43.534;-5.652;2023-04-01T07:11:09;11.75;;;3.88;;
77991;SDS011;67180;43.534;-5.652;2023-04-01T07:13:47;12.27;;;3.80;;
77991;SDS011;67180;43.534;-5.652;2023-04-01T07:19:06;9.40;;;2.90;;
77991;SDS011;67180;43.534;-5.652;2023-04-01T07:21:37;10.25;;;3.38;;
77991;SDS011;67180;43.534;-5.652;2023-04-01T07:24:06;9.13;;;2.70;;
77991;SDS011;67180;43.534;-5.652;2023-04-01T07:26:35;8.68;;;2.35;;
77991;SDS011;67180;43.534;-5.652;2023-04-01T07:29:01;8.65;;;2.30;;
77991;SDS011;67180;43.534;-5.652;2023-04-01T07:31:36;11.63;;;2.75;;
77991;SDS011;67180;43.534;-5.652;2023-04-01T07:34:23;7.30;;;2.30;;
77991;SDS011;67180;43.534;-5.652;2023-04-01T07:36:54;5.88;;;2.03;;
77991;SDS011;67180;43.534;-5.652;2023-04-01T07:42:01;6.75;;;1.92;;
77991;SDS011;67180;43.534;-5.652;2023-04-01T07:44:36;8.82;;;2.22;;
77991;SDS011;67180;43.534;-5.652;2023-04-01T07:47:12;6.38;;;2.33;;
77991;SDS011;67180;43.534;-5.652;2023-04-01T07:55:10;8.52;;;2.00;;
77991;SDS011;67180;43.534;-5.652;2023-04-01T07:57:44;6.20;;;1.85;;
77991;SDS011;67180;43.534;-5.652;2023-04-01T08:00:21;5.28;;;2.03;;
77991;SDS011;67180;43.534;-5.652;2023-04-01T08:03:00;4.72;;;1.83;;
77991;SDS011;67180;43.534;-5.652;2023-04-01T08:05:33;5.20;;;2.05;;
77991;SDS011;67180;43.534;-5.652;2023-04-01T08:08:07;7.82;;;1.83;;
77991;SDS011;67180;43.534;-5.652;2023-04-01T08:10:40;8.52;;;2.63;;
77991;SDS011;67180;43.534;-5.652;2023-04-01T08:13:22;5.10;;;1.70;;
77991;SDS011;67180;43.534;-5.652;2023-04-01T08:16:04;10.05;;;2.47;;
77991;SDS011;67180;43.534;-5.652;2023-04-01T08:21:23;7.30;;;2.10;;
77991;SDS011;67180;43.534;-5.652;2023-04-01T08:23:51;6.57;;;1.88;;
77991;SDS011;67180;43.534;-5.652;2023-04-01T08:29:11;5.25;;;2.20;;
77991;SDS011;67180;43.534;-5.652;2023-04-01T08:31:40;5.85;;;1.88;;
77991;SDS011;67180;43.534;-5.652;2023-04-01T08:34:13;6.55;;;1.70;;
77991;SDS011;67180;43.534;-5.652;2023-04-01T08:36:42;5.22;;;1.65;;
77991;SDS011;67180;43.534;-5.652;2023-04-01T08:39:10;8.35;;;1.80;;
77991;SDS011;67180;43.534;-5.652;2023-04-01T08:41:46;7.07;;;1.87;;
77991;SDS011;67180;43.534;-5.652;2023-04-01T08:49:42;10.90;;;2.65;;
77991;SDS011;67180;43.534;-5.652;2023-04-01T09:00:15;9.73;;;2.58;;
77991;SDS011;67180;43.534;-5.652;2023-04-01T09:02:49;10.20;;;2.78;;
77991;SDS011;67180;43.534;-5.652;2023-04-01T09:08:04;11.20;;;3.22;;
77991;SDS011;67180;43.534;-5.652;2023-04-01T09:16:22;16.73;;;3.72;;
77991;SDS011;67180;43.534;-5.652;2023-04-01T09:18:49;13.95;;;3.22;;
77991;SDS011;67180;43.534;-5.652;2023-04-01T09:24:14;15.93;;;2.80;;
77991;SDS011;67180;43.534;-5.652;2023-04-01T09:26:44;7.90;;;2.10;;
77991;SDS011;67180;43.534;-5.652;2023-04-01T09:29:22;9.88;;;2.17;;
77991;SDS011;67180;43.534;-5.652;2023-04-01T09:32:03;8.52;;;1.98;;
77991;SDS011;67180;43.534;-5.652;2023-04-01T09:34:40;8.55;;;1.98;;
77991;SDS011;67180;43.534;-5.652;2023-04-01T09:37:18;9.73;;;2.17;;
77991;SDS011;67180;43.534;-5.652;2023-04-01T09:39:52;10.73;;;2.58;;
77991;SDS011;67180;43.534;-5.652;2023-04-01T09:42:29;8.32;;;1.88;;
77991;SDS011;67180;43.534;-5.652;2023-04-01T09:45:00;14.68;;;2.08;;
77991;SDS011;67180;43.534;-5.652;2023-04-01T09:47:34;8.13;;;2.17;;
77991;SDS011;67180;43.534;-5.652;2023-04-01T09:50:14;13.20;;;2.70;;
77991;SDS011;67180;43.534;-5.652;2023-04-01T09:55:45;13.82;;;3.30;;
77991;SDS011;67180;43.534;-5.652;2023-04-01T09:58:20;22.38;;;3.75;;
77991;SDS011;67180;43.534;-5.652;2023-04-01T10:03:37;16.42;;;4.22;;
77991;SDS011;67180;43.534;-5.652;2023-04-01T10:06:24;18.00;;;4.07;;
77991;SDS011;67180;43.534;-5.652;2023-04-01T10:11:43;15.15;;;4.38;;
77991;SDS011;67180;43.534;-5.652;2023-04-01T10:17:12;14.32;;;3.58;;
77991;SDS011;67180;43.534;-5.652;2023-04-01T10:22:36;10.98;;;3.35;;
77991;SDS011;67180;43.534;-5.652;2023-04-01T10:30:52;12.27;;;3.42;;
77991;SDS011;67180;43.534;-5.652;2023-04-01T10:33:30;16.80;;;3.80;;
77991;SDS011;67180;43.534;-5.652;2023-04-01T10:44:26;13.38;;;3.55;;
77991;SDS011;67180;43.534;-5.652;2023-04-01T10:47:18;10.23;;;3.15;;
77991;SDS011;67180;43.534;-5.652;2023-04-01T10:49:46;8.68;;;3.03;;
77991;SDS011;67180;43.534;-5.652;2023-04-01T10:55:07;11.30;;;3.42;;
77991;SDS011;67180;43.534;-5.652;2023-04-01T11:14:02;9.05;;;2.42;;
77991;SDS011;67180;43.534;-5.652;2023-04-01T11:16:40;10.05;;;2.13;;
77991;SDS011;67180;43.534;-5.652;2023-04-01T11:19:17;9.00;;;2.28;;
77991;SDS011;67180;43.534;-5.652;2023-04-01T11:21:57;6.75;;;1.67;;
77991;SDS011;67180;43.534;-5.652;2023-04-01T11:27:17;10.35;;;1.75;;
77991;SDS011;67180;43.534;-5.652;2023-04-01T11:38:04;9.32;;;2.00;;
77991;SDS011;67180;43.534;-5.652;2023-04-01T11:43:21;7.43;;;1.63;;
77991;SDS011;67180;43.534;-5.652;2023-04-01T11:45:51;7.45;;;1.38;;
77991;SDS011;67180;43.534;-5.652;2023-04-01T11:48:26;4.57;;;1.30;;
77991;SDS011;67180;43.534;-5.652;2023-04-01T11:53:44;5.53;;;1.63;;
77991;SDS011;67180;43.534;-5.652;2023-04-01T11:59:04;7.75;;;1.40;;
77991;SDS011;67180;43.534;-5.652;2023-04-01T12:01:54;7.05;;;1.73;;
77991;SDS011;67180;43.534;-5.652;2023-04-01T12:07:06;8.40;;;1.92;;
77991;SDS011;67180;43.534;-5.652;2023-04-01T12:09:49;7.47;;;1.80;;
77991;SDS011;67180;43.534;-5.652;2023-04-01T12:15:02;10.85;;;2.05;;
77991;SDS011;67180;43.534;-5.652;2023-04-01T12:23:16;8.27;;;2.15;;
77991;SDS011;67180;43.534;-5.652;2023-04-01T12:25:56;6.57;;;1.70;;
77991;SDS011;67180;43.534;-5.652;2023-04-01T12:31:15;8.68;;;2.08;;
77991;SDS011;67180;43.534;-5.652;2023-04-01T12:33:49;9.10;;;1.90;;
77991;SDS011;67180;43.534;-5.652;2023-04-01T12:36:19;10.90;;;1.90;;
77991;SDS011;67180;43.534;-5.652;2023-04-01T12:41:36;8.95;;;1.73;;
77991;SDS011;67180;43.534;-5.652;2023-04-01T12:44:12;12.75;;;2.33;;
77991;SDS011;67180;43.534;-5.652;2023-04-01T12:46:53;13.73;;;2.05;;
77991;SDS011;67180;43.534;-5.652;2023-04-01T12:49:41;14.55;;;2.22;;
77991;SDS011;67180;43.534;-5.652;2023-04-01T12:55:06;15.07;;;2.38;;
77991;SDS011;67180;43.534;-5.652;2023-04-01T12:57:46;12.55;;;2.08;;
77991;SDS011;67180;43.534;-5.652;2023-04-01T13:00:25;17.13;;;2.05;;
77991;SDS011;67180;43.534;-5.652;2023-04-01T13:02:59;11.95;;;1.77;;
77991;SDS011;67180;43.534;-5.652;2023-04-01T13:08:16;16.65;;;2.05;;
77991;SDS011;67180;43.534;-5.652;2023-04-01T13:10:56;12.13;;;2.13;;
77991;SDS011;67180;43.534;-5.652;2023-04-01T13:16:10;13.23;;;2.30;;
77991;SDS011;67180;43.534;-5.652;2023-04-01T13:18:46;16.63;;;2.13;;
77991;SDS011;67180;43.534;-5.652;2023-04-01T13:21:24;13.73;;;2.17;;
77991;SDS011;67180;43.534;-5.652;2023-04-01T13:24:01;10.75;;;2.70;;
77991;SDS011;67180;43.534;-5.652;2023-04-01T13:26:36;13.10;;;2.58;;
77991;SDS011;67180;43.534;-5.652;2023-04-01T13:29:10;15.10;;;2.28;;
77991;SDS011;67180;43.534;-5.652;2023-04-01T13:31:44;6.55;;;1.58;;
77991;SDS011;67180;43.534;-5.652;2023-04-01T13:34:19;7.78;;;1.40;;
77991;SDS011;67180;43.534;-5.652;2023-04-01T13:36:52;4.70;;;1.40;;
77991;SDS011;67180;43.534;-5.652;2023-04-01T13:39:25;6.38;;;1.60;;
77991;SDS011;67180;43.534;-5.652;2023-04-01T13:42:00;4.75;;;1.50;;
77991;SDS011;67180;43.534;-5.652;2023-04-01T13:49:57;5.00;;;1.65;;
77991;SDS011;67180;43.534;-5.652;2023-04-01T13:55:29;4.85;;;1.60;;
77991;SDS011;67180;43.534;-5.652;2023-04-01T14:00:44;6.20;;;2.08;;
77991;SDS011;67180;43.534;-5.652;2023-04-01T14:03:15;5.35;;;1.77;;
77991;SDS011;67180;43.534;-5.652;2023-04-01T14:05:47;7.82;;;2.42;;
77991;SDS011;67180;43.534;-5.652;2023-04-01T14:08:26;6.88;;;2.20;;
77991;SDS011;67180;43.534;-5.652;2023-04-01T14:13:43;10.82;;;2.35;;
77991;SDS011;67180;43.534;-5.652;2023-04-01T14:18:57;8.60;;;2.60;;
77991;SDS011;67180;43.534;-5.652;2023-04-01T14:21:31;11.07;;;2.80;;
77991;SDS011;67180;43.534;-5.652;2023-04-01T14:24:06;11.70;;;3.10;;
77991;SDS011;67180;43.534;-5.652;2023-04-01T14:26:45;15.60;;;2.72;;
77991;SDS011;67180;43.534;-5.652;2023-04-01T14:29:29;13.90;;;3.15;;
77991;SDS011;67180;43.534;-5.652;2023-04-01T14:34:40;9.67;;;2.50;;
77991;SDS011;67180;43.534;-5.652;2023-04-01T14:37:15;14.10;;;3.05;;
77991;SDS011;67180;43.534;-5.652;2023-04-01T14:39:54;15.35;;;3.38;;
77991;SDS011;67180;43.534;-5.652;2023-04-01T14:42:38;11.13;;;2.83;;
77991;SDS011;67180;43.534;-5.652;2023-04-01T14:47:48;12.45;;;3.25;;
77991;SDS011;67180;43.534;-5.652;2023-04-01T14:50:18;11.53;;;3.03;;
77991;SDS011;67180;43.534;-5.652;2023-04-01T14:52:55;11.20;;;3.20;;
77991;SDS011;67180;43.534;-5.652;2023-04-01T14:55:31;10.48;;;2.78;;
77991;SDS011;67180;43.534;-5.652;2023-04-01T14:57:59;13.20;;;3.15;;
77991;SDS011;67180;43.534;-5.652;2023-04-01T15:00:25;17.27;;;3.03;;
77991;SDS011;67180;43.534;-5.652;2023-04-01T15:02:59;14.55;;;2.95;;
77991;SDS011;67180;43.534;-5.652;2023-04-01T15:05:49;19.10;;;2.67;;
77991;SDS011;67180;43.534;-5.652;2023-04-01T15:08:21;12.25;;;2.78;;
77991;SDS011;67180;43.534;-5.652;2023-04-01T15:10:50;11.50;;;2.80;;
77991;SDS011;67180;43.534;-5.652;2023-04-01T15:18:37;14.23;;;2.60;;
77991;SDS011;67180;43.534;-5.652;2023-04-01T15:21:18;13.55;;;2.25;;
77991;SDS011;67180;43.534;-5.652;2023-04-01T15:23:49;14.02;;;2.45;;
77991;SDS011;67180;43.534;-5.652;2023-04-01T15:29:06;12.02;;;2.53;;
77991;SDS011;67180;43.534;-5.652;2023-04-01T15:31:39;18.92;;;2.90;;
77991;SDS011;67180;43.534;-5.652;2023-04-01T15:34:15;16.00;;;2.72;;
77991;SDS011;67180;43.534;-5.652;2023-04-01T15:36:45;10.40;;;2.60;;
77991;SDS011;67180;43.534;-5.652;2023-04-01T15:39:13;15.40;;;3.22;;
77991;SDS011;67180;43.534;-5.652;2023-04-01T15:49:49;14.07;;;2.67;;
77991;SDS011;67180;43.534;-5.652;2023-04-01T15:52:23;11.38;;;2.75;;
77991;SDS011;67180;43.534;-5.652;2023-04-01T16:05:51;10.13;;;2.50;;
77991;SDS011;67180;43.534;-5.652;2023-04-01T16:11:25;14.25;;;3.00;;
77991;SDS011;67180;43.534;-5.652;2023-04-01T16:13:59;10.27;;;2.65;;
77991;SDS011;67180;43.534;-5.652;2023-04-01T16:16:49;13.63;;;2.30;;
77991;SDS011;67180;43.534;-5.652;2023-04-01T16:19:23;10.32;;;2.47;;
77991;SDS011;67180;43.534;-5.652;2023-04-01T16:21:53;10.98;;;2.88;;
77991;SDS011;67180;43.534;-5.652;2023-04-01T16:26:51;9.10;;;2.20;;
77991;SDS011;67180;43.534;-5.652;2023-04-01T16:29:22;12.32;;;2.38;;
77991;SDS011;67180;43.534;-5.652;2023-04-01T16:31:53;12.00;;;2.30;;
77991;SDS011;67180;43.534;-5.652;2023-04-01T16:34:25;11.38;;;2.28;;
77991;SDS011;67180;43.534;-5.652;2023-04-01T16:37:00;13.15;;;3.20;;
77991;SDS011;67180;43.534;-5.652;2023-04-01T16:39:37;17.00;;;2.55;;
77991;SDS011;67180;43.534;-5.652;2023-04-01T16:42:15;10.90;;;2.22;;
77991;SDS011;67180;43.534;-5.652;2023-04-01T16:44:46;14.18;;;2.45;;
77991;SDS011;67180;43.534;-5.652;2023-04-01T16:47:13;14.00;;;3.00;;
77991;SDS011;67180;43.534;-5.652;2023-04-01T16:49:42;11.27;;;2.22;;
77991;SDS011;67180;43.534;-5.652;2023-04-01T16:52:13;15.73;;;2.35;;
77991;SDS011;67180;43.534;-5.652;2023-04-01T16:57:25;19.20;;;2.55;;
77991;SDS011;67180;43.534;-5.652;2023-04-01T16:59:57;13.23;;;2.83;;
77991;SDS011;67180;43.534;-5.652;2023-04-01T17:02:30;9.00;;;3.00;;
77991;SDS011;67180;43.534;-5.652;2023-04-01T17:04:59;10.70;;;2.40;;
77991;SDS011;67180;43.534;-5.652;2023-04-01T17:12:55;11.38;;;3.40;;
77991;SDS011;67180;43.534;-5.652;2023-04-01T17:15:34;8.80;;;2.15;;
77991;SDS011;67180;43.534;-5.652;2023-04-01T17:18:06;12.90;;;2.25;;
77991;SDS011;67180;43.534;-5.652;2023-04-01T17:20:43;11.68;;;2.20;;
77991;SDS011;67180;43.534;-5.652;2023-04-01T17:23:14;11.98;;;2.08;;
77991;SDS011;67180;43.534;-5.652;2023-04-01T17:31:20;12.23;;;2.10;;
77991;SDS011;67180;43.534;-5.652;2023-04-01T17:39:22;13.05;;;2.45;;
77991;SDS011;67180;43.534;-5.652;2023-04-01T17:41:57;6.72;;;1.80;;
77991;SDS011;67180;43.534;-5.652;2023-04-01T17:44:30;13.75;;;2.15;;
77991;SDS011;67180;43.534;-5.652;2023-04-01T17:47:01;12.43;;;2.45;;
77991;SDS011;67180;43.534;-5.652;2023-04-01T17:49:35;19.38;;;1.90;;
77991;SDS011;67180;43.534;-5.652;2023-04-01T18:00:03;15.60;;;2.40;;
77991;SDS011;67180;43.534;-5.652;2023-04-01T18:05:21;11.40;;;1.70;;
77991;SDS011;67180;43.534;-5.652;2023-04-01T18:16:00;13.73;;;2.10;;
77991;SDS011;67180;43.534;-5.652;2023-04-01T18:18:37;12.35;;;1.83;;
77991;SDS011;67180;43.534;-5.652;2023-04-01T18:21:20;13.75;;;2.90;;
77991;SDS011;67180;43.534;-5.652;2023-04-01T18:23:53;13.63;;;1.77;;
77991;SDS011;67180;43.534;-5.652;2023-04-01T18:26:24;11.27;;;1.93;;
77991;SDS011;67180;43.534;-5.652;2023-04-01T18:28:54;9.82;;;1.80;;
77991;SDS011;67180;43.534;-5.652;2023-04-01T18:31:24;11.95;;;2.17;;
77991;SDS011;67180;43.534;-5.652;2023-04-01T18:33:56;11.90;;;2.25;;
77991;SDS011;67180;43.534;-5.652;2023-04-01T18:39:04;12.55;;;1.85;;
77991;SDS011;67180;43.534;-5.652;2023-04-01T18:44:06;12.18;;;1.55;;
77991;SDS011;67180;43.534;-5.652;2023-04-01T18:47:03;15.05;;;1.90;;
77991;SDS011;67180;43.534;-5.652;2023-04-01T18:49:29;7.88;;;1.60;;
77991;SDS011;67180;43.534;-5.652;2023-04-01T18:52:02;16.60;;;2.25;;
77991;SDS011;67180;43.534;-5.652;2023-04-01T18:54:41;13.73;;;2.20;;
77991;SDS011;67180;43.534;-5.652;2023-04-01T18:57:12;12.23;;;2.00;;
77991;SDS011;67180;43.534;-5.652;2023-04-01T18:59:42;10.55;;;2.00;;
77991;SDS011;67180;43.534;-5.652;2023-04-01T19:07:39;14.43;;;2.13;;
77991;SDS011;67180;43.534;-5.652;2023-04-01T19:10:23;15.85;;;2.63;;
77991;SDS011;67180;43.534;-5.652;2023-04-01T19:12:55;13.20;;;2.28;;